No particular awareness of the weather is required.    There are no Weather-warnings


Meteo18 Weather Cam more information Meteo18 Weather Cam


Thunder radar more information blitzortung!


Rain radar more information rain snow radar


Visit our other weather sites:

Template documentation
and downloads

And another site



Weather Underground History page Text

Daily Summary for September 28, 2016 Units:  Metric    English   Both
« Previous Day
Next Day »
Daily Weekly Monthly Yearly Custom
  High: Low: Average:
Temperature: 25.2 °C 8.3 °C 16.3 °C
Dew Point: 12.6 °C 6.3 °C 9.1 °C
Humidity: 90 % 39 % 65 %
Wind Speed: 16.1 km/h 0.0 km/h 2.1 km/h
Wind Gust: 20.9 km/h - -
Wind:- - SW
Pressure: 1030.0 hPa 1026.6 hPa -
Precipitation: 0.0 mm    
Historical Graphs
 
 
Tabular Data for September 28, 2016
Time Temperature Dew Point Pressure Wind Wind Speed Wind Gust Humidity Rainfall Rate (Hourly)
00:02 12.5 °C 7.6 °C 1028.0 hPa Calm   1.6 km/h 72 % 0.0 mm
00:12 12.8 °C 7.5 °C 1028.0 hPa NNW 1.6 km/h 3.2 km/h 70 % 0.0 mm
00:17 13.0 °C 7.4 °C 1028.0 hPa NNW 1.6 km/h 3.2 km/h 69 % 0.0 mm
00:22 12.9 °C 7.6 °C 1028.0 hPa North 1.6 km/h 3.2 km/h 70 % 0.0 mm
00:27 12.7 °C 7.4 °C 1028.0 hPa Calm   3.2 km/h 70 % 0.0 mm
00:32 12.5 °C 7.4 °C 1028.0 hPa Calm   3.2 km/h 71 % 0.0 mm
00:37 12.4 °C 7.5 °C 1028.0 hPa Calm   3.2 km/h 72 % 0.0 mm
00:42 12.3 °C 7.4 °C 1028.0 hPa Calm   1.6 km/h 72 % 0.0 mm
00:47 12.4 °C 7.5 °C 1028.0 hPa North 1.6 km/h 1.6 km/h 72 % 0.0 mm
00:52 12.5 °C 7.6 °C 1028.0 hPa Calm   1.6 km/h 72 % 0.0 mm
00:57 12.6 °C 7.7 °C 1028.0 hPa Calm   1.6 km/h 72 % 0.0 mm
01:02 12.7 °C 7.8 °C 1028.0 hPa Calm   1.6 km/h 72 % 0.0 mm
01:12 12.3 °C 7.4 °C 1028.0 hPa Calm     72 % 0.0 mm
01:17 12.1 °C 7.4 °C 1028.0 hPa Calm     73 % 0.0 mm
01:22 12.1 °C 7.6 °C 1028.0 hPa Calm     74 % 0.0 mm
01:27 12.1 °C 7.6 °C 1028.0 hPa Calm   1.6 km/h 74 % 0.0 mm
01:32 11.9 °C 7.4 °C 1028.0 hPa Calm   1.6 km/h 74 % 0.0 mm
01:37 11.9 °C 7.6 °C 1028.0 hPa Calm     75 % 0.0 mm
01:42 11.9 °C 7.6 °C 1028.0 hPa Calm     75 % 0.0 mm
01:47 11.7 °C 7.4 °C 1028.0 hPa WNW 1.6 km/h 1.6 km/h 75 % 0.0 mm
01:52 11.6 °C 7.3 °C 1028.0 hPa WNW 1.6 km/h 1.6 km/h 75 % 0.0 mm
01:57 11.5 °C 7.2 °C 1028.0 hPa Calm   1.6 km/h 75 % 0.0 mm
02:12 11.7 °C 7.4 °C 1028.3 hPa Calm   1.6 km/h 75 % 0.0 mm
02:22 11.4 °C 7.5 °C 1028.3 hPa Calm     77 % 0.0 mm
02:27 11.3 °C 7.4 °C 1028.3 hPa Calm     77 % 0.0 mm
02:37 11.2 °C 7.1 °C 1028.3 hPa Calm     76 % 0.0 mm
02:42 11.2 °C 7.3 °C 1028.3 hPa Calm     77 % 0.0 mm
02:47 11.2 °C 7.5 °C 1028.3 hPa Calm     78 % 0.0 mm
02:52 11.1 °C 7.4 °C 1028.3 hPa Calm     78 % 0.0 mm
02:57 11.1 °C 7.4 °C 1028.3 hPa Calm     78 % 0.0 mm
03:02 11.1 °C 7.4 °C 1028.3 hPa Calm     78 % 0.0 mm
03:07 11.0 °C 7.3 °C 1028.3 hPa Calm     78 % 0.0 mm
03:12 11.1 °C 7.4 °C 1028.0 hPa Calm     78 % 0.0 mm
03:17 10.9 °C 7.2 °C 1028.0 hPa Calm     78 % 0.0 mm
03:32 10.9 °C 7.4 °C 1028.0 hPa Calm   1.6 km/h 79 % 0.0 mm
03:37 10.9 °C 7.4 °C 1028.0 hPa Calm   1.6 km/h 79 % 0.0 mm
03:42 10.8 °C 7.3 °C 1028.0 hPa Calm   1.6 km/h 79 % 0.0 mm
03:52 11.0 °C 7.5 °C 1028.0 hPa Calm     79 % 0.0 mm
03:57 11.1 °C 7.4 °C 1028.0 hPa Calm   1.6 km/h 78 % 0.0 mm
04:02 11.1 °C 7.4 °C 1028.3 hPa Calm   1.6 km/h 78 % 0.0 mm
04:12 11.1 °C 7.2 °C 1028.3 hPa Calm   1.6 km/h 77 % 0.0 mm
04:17 10.9 °C 7.0 °C 1028.3 hPa Calm   1.6 km/h 77 % 0.0 mm
04:22 10.7 °C 7.2 °C 1028.3 hPa Calm   1.6 km/h 79 % 0.0 mm
04:27 10.6 °C 7.1 °C 1028.3 hPa Calm   1.6 km/h 79 % 0.0 mm
04:32 10.4 °C 6.9 °C 1028.0 hPa Calm   1.6 km/h 79 % 0.0 mm
04:37 10.4 °C 7.1 °C 1028.3 hPa Calm     80 % 0.0 mm
04:42 10.3 °C 7.0 °C 1028.3 hPa Calm     80 % 0.0 mm
04:47 10.3 °C 7.0 °C 1028.3 hPa Calm     80 % 0.0 mm
04:52 10.3 °C 7.2 °C 1028.0 hPa Calm     81 % 0.0 mm
05:02 10.3 °C 7.2 °C 1028.3 hPa Calm     81 % 0.0 mm
05:12 9.9 °C 6.8 °C 1028.0 hPa Calm     81 % 0.0 mm
05:17 9.7 °C 6.6 °C 1028.0 hPa Calm     81 % 0.0 mm
05:22 9.5 °C 6.6 °C 1028.0 hPa Calm     82 % 0.0 mm
05:32 9.5 °C 6.8 °C 1028.3 hPa Calm     83 % 0.0 mm
05:37 9.4 °C 6.7 °C 1028.3 hPa Calm     83 % 0.0 mm
05:42 9.5 °C 6.9 °C 1028.3 hPa Calm     84 % 0.0 mm
05:52 9.8 °C 6.9 °C 1028.7 hPa Calm     82 % 0.0 mm
05:57 9.8 °C 6.9 °C 1028.3 hPa Calm     82 % 0.0 mm
06:02 9.7 °C 6.8 °C 1028.3 hPa Calm     82 % 0.0 mm
06:07 9.7 °C 7.0 °C 1028.3 hPa Calm     83 % 0.0 mm
06:12 9.6 °C 6.9 °C 1028.3 hPa Calm     83 % 0.0 mm
06:17 9.5 °C 6.9 °C 1028.3 hPa Calm     84 % 0.0 mm
06:22 9.4 °C 6.8 °C 1028.7 hPa Calm     84 % 0.0 mm
06:27 9.3 °C 6.7 °C 1028.7 hPa Calm     84 % 0.0 mm
06:32 9.3 °C 6.9 °C 1028.7 hPa Calm     85 % 0.0 mm
06:42 9.3 °C 6.9 °C 1028.7 hPa Calm     85 % 0.0 mm
06:52 9.4 °C 6.7 °C 1029.0 hPa Calm     83 % 0.0 mm
07:02 9.1 °C 6.7 °C 1028.7 hPa Calm     85 % 0.0 mm
07:07 9.1 °C 6.7 °C 1028.7 hPa Calm   1.6 km/h 85 % 0.0 mm
07:12 8.9 °C 6.7 °C 1028.7 hPa Calm   1.6 km/h 86 % 0.0 mm
07:17 8.9 °C 6.7 °C 1028.7 hPa Calm   1.6 km/h 86 % 0.0 mm
07:22 8.7 °C 6.5 °C 1029.0 hPa Calm   1.6 km/h 86 % 0.0 mm
07:32 8.5 °C 6.5 °C 1028.7 hPa Calm     87 % 0.0 mm
07:37 8.3 °C 6.3 °C 1028.7 hPa Calm     87 % 0.0 mm
07:42 8.3 °C 6.4 °C 1029.0 hPa Calm     88 % 0.0 mm
07:52 8.3 °C 6.6 °C 1029.0 hPa Calm     89 % 0.0 mm
07:57 8.5 °C 7.0 °C 1029.0 hPa Calm     90 % 0.0 mm
08:02 8.6 °C 6.9 °C 1029.0 hPa Calm     89 % 0.0 mm
08:22 8.9 °C 7.2 °C 1029.0 hPa Calm     89 % 0.0 mm
08:32 9.3 °C 7.4 °C 1029.0 hPa Calm     88 % 0.0 mm
08:37 9.5 °C 7.8 °C 1029.0 hPa Calm     89 % 0.0 mm
08:42 10.2 °C 8.5 °C 1029.0 hPa Calm     89 % 0.0 mm
08:52 10.7 °C 7.9 °C 1029.0 hPa Calm     83 % 0.0 mm
09:02 10.9 °C 7.9 °C 1029.0 hPa Calm     82 % 0.0 mm
09:07 11.2 °C 8.2 °C 1029.3 hPa Calm     82 % 0.0 mm
09:12 11.6 °C 8.1 °C 1029.3 hPa SSW 3.2 km/h 3.2 km/h 79 % 0.0 mm
09:17 11.6 °C 8.1 °C 1029.3 hPa SSW 4.8 km/h 4.8 km/h 79 % 0.0 mm
09:22 11.7 °C 8.2 °C 1029.3 hPa SW 3.2 km/h 6.4 km/h 79 % 0.0 mm
09:27 12.1 °C 8.4 °C 1029.3 hPa SW 1.6 km/h 6.4 km/h 78 % 0.0 mm
09:32 12.3 °C 8.6 °C 1029.3 hPa SSW 3.2 km/h 6.4 km/h 78 % 0.0 mm
09:37 12.5 °C 8.6 °C 1029.3 hPa Calm   6.4 km/h 77 % 0.0 mm
09:42 12.7 °C 8.6 °C 1029.7 hPa SSW 1.6 km/h 6.4 km/h 76 % 0.0 mm
09:52 13.3 °C 8.8 °C 1029.3 hPa South 3.2 km/h 6.4 km/h 74 % 0.0 mm
09:57 13.5 °C 8.8 °C 1029.7 hPa Calm   6.4 km/h 73 % 0.0 mm
10:02 13.8 °C 8.8 °C 1029.7 hPa SSW 6.4 km/h 6.4 km/h 72 % 0.0 mm
10:17 14.5 °C 9.1 °C 1029.7 hPa SW 1.6 km/h 6.4 km/h 70 % 0.0 mm
10:22 14.9 °C 9.3 °C 1029.7 hPa SSE 3.2 km/h 4.8 km/h 69 % 0.0 mm
10:32 15.7 °C 9.6 °C 1030.0 hPa South 1.6 km/h 4.8 km/h 67 % 0.0 mm
10:42 15.9 °C 9.3 °C 1030.0 hPa SW 3.2 km/h 6.4 km/h 65 % 0.0 mm
10:52 16.6 °C 9.5 °C 1030.0 hPa SSW 4.8 km/h 6.4 km/h 63 % 0.0 mm
10:57 16.9 °C 9.6 °C 1030.0 hPa SW 3.2 km/h 6.4 km/h 62 % 0.0 mm
11:12 17.8 °C 9.9 °C 1030.0 hPa SW 8.0 km/h 8.0 km/h 60 % 0.0 mm
11:17 17.9 °C 9.5 °C 1030.0 hPa South 6.4 km/h 8.0 km/h 58 % 0.0 mm
11:22 18.2 °C 9.8 °C 1030.0 hPa Calm   9.7 km/h 58 % 0.0 mm
11:32 18.9 °C 9.9 °C 1030.0 hPa South 1.6 km/h 9.7 km/h 56 % 0.0 mm
11:37 19.0 °C 9.8 °C 1030.0 hPa WSW 3.2 km/h 9.7 km/h 55 % 0.0 mm
11:42 19.1 °C 9.8 °C 1030.0 hPa South 8.0 km/h 12.9 km/h 55 % 0.0 mm
11:47 19.5 °C 9.9 °C 1029.7 hPa ESE 3.2 km/h 12.9 km/h 54 % 0.0 mm
11:52 19.8 °C 9.7 °C 1029.7 hPa SW 3.2 km/h 12.9 km/h 52 % 0.0 mm
12:02 20.4 °C 9.9 °C 1029.7 hPa SSW 3.2 km/h 9.7 km/h 51 % 0.0 mm
12:12 20.8 °C 9.7 °C 1029.3 hPa SSE 1.6 km/h 9.7 km/h 49 % 0.0 mm
12:17 21.0 °C 9.6 °C 1029.3 hPa SSW 1.6 km/h 9.7 km/h 48 % 0.0 mm
12:22 21.0 °C 9.6 °C 1029.3 hPa SSW 4.8 km/h 11.3 km/h 48 % 0.0 mm
12:32 21.3 °C 9.5 °C 1029.3 hPa SSW 9.7 km/h 11.3 km/h 47 % 0.0 mm
12:42 21.7 °C 9.2 °C 1029.3 hPa SSE 8.0 km/h 14.5 km/h 45 % 0.0 mm
12:52 21.8 °C 9.3 °C 1029.3 hPa SW 8.0 km/h 14.5 km/h 45 % 0.0 mm
12:57 22.3 °C 9.5 °C 1029.3 hPa ESE 4.8 km/h 12.9 km/h 44 % 0.0 mm
13:02 22.4 °C 8.9 °C 1029.3 hPa WSW 9.7 km/h 12.9 km/h 42 % 0.0 mm
13:12 22.1 °C 8.9 °C 1029.3 hPa WSW 6.4 km/h 16.1 km/h 43 % 0.0 mm
13:17 22.2 °C 8.7 °C 1029.0 hPa SSW 12.9 km/h 16.1 km/h 42 % 0.0 mm
13:22 22.4 °C 8.9 °C 1029.0 hPa WSW 6.4 km/h 16.1 km/h 42 % 0.0 mm
13:32 22.7 °C 9.1 °C 1029.0 hPa WSW 1.6 km/h 16.1 km/h 42 % 0.0 mm
13:37 22.8 °C 8.9 °C 1029.0 hPa WSW 11.3 km/h 14.5 km/h 41 % 0.0 mm
13:42 22.8 °C 8.9 °C 1029.0 hPa SW 3.2 km/h 14.5 km/h 41 % 0.0 mm
13:47 22.8 °C 8.9 °C 1029.0 hPa WSW 11.3 km/h 14.5 km/h 41 % 0.0 mm
13:52 22.7 °C 9.1 °C 1029.0 hPa SSW 8.0 km/h 16.1 km/h 42 % 0.0 mm
14:02 23.1 °C 8.8 °C 1028.7 hPa SSW 9.7 km/h 16.1 km/h 40 % 0.0 mm
14:12 23.3 °C 8.9 °C 1028.7 hPa SW 6.4 km/h 17.7 km/h 40 % 0.0 mm
14:17 23.2 °C 8.9 °C 1028.7 hPa SSW 9.7 km/h 17.7 km/h 40 % 0.0 mm
14:22 23.3 °C 9.3 °C 1028.3 hPa WSW 4.8 km/h 14.5 km/h 41 % 0.0 mm
14:32 23.7 °C 8.9 °C 1028.3 hPa South 11.3 km/h 14.5 km/h 39 % 0.0 mm
14:37 23.4 °C 8.7 °C 1028.3 hPa West 4.8 km/h 20.9 km/h 39 % 0.0 mm
14:42 23.5 °C 8.7 °C 1028.3 hPa SW 3.2 km/h 20.9 km/h 39 % 0.0 mm
14:47 23.6 °C 9.2 °C 1028.3 hPa WSW 4.8 km/h 20.9 km/h 40 % 0.0 mm
14:52 23.9 °C 9.5 °C 1028.3 hPa SSW 6.4 km/h 20.9 km/h 40 % 0.0 mm
15:12 24.1 °C 9.7 °C 1028.0 hPa WSW 9.7 km/h 12.9 km/h 40 % 0.0 mm
15:17 24.3 °C 9.8 °C 1028.0 hPa WSW 6.4 km/h 16.1 km/h 40 % 0.0 mm
15:22 24.1 °C 9.7 °C 1028.0 hPa SW 6.4 km/h 16.1 km/h 40 % 0.0 mm
15:27 24.2 °C 9.7 °C 1028.0 hPa West 8.0 km/h 17.7 km/h 40 % 0.0 mm
15:32 23.9 °C 9.5 °C 1027.7 hPa West 8.0 km/h 17.7 km/h 40 % 0.0 mm
15:37 23.8 °C 9.8 °C 1027.7 hPa SW 6.4 km/h 12.9 km/h 41 % 0.0 mm
15:42 24.0 °C 9.6 °C 1027.7 hPa WNW 11.3 km/h 12.9 km/h 40 % 0.0 mm
15:47 23.9 °C 9.5 °C 1027.7 hPa West 6.4 km/h 14.5 km/h 40 % 0.0 mm
15:52 24.1 °C 9.7 °C 1027.7 hPa West 4.8 km/h 14.5 km/h 40 % 0.0 mm
15:57 24.1 °C 9.7 °C 1027.7 hPa West 6.4 km/h 14.5 km/h 40 % 0.0 mm
16:02 24.1 °C 9.7 °C 1027.7 hPa SW 4.8 km/h 14.5 km/h 40 % 0.0 mm
16:12 24.4 °C 9.5 °C 1027.7 hPa WSW 16.1 km/h 16.1 km/h 39 % 0.0 mm
16:22 24.2 °C 9.4 °C 1027.7 hPa SW 6.4 km/h 17.7 km/h 39 % 0.0 mm
16:32 24.4 °C 9.5 °C 1027.3 hPa WNW 4.8 km/h 17.7 km/h 39 % 0.0 mm
16:42 24.6 °C 9.7 °C 1027.7 hPa WSW 8.0 km/h 11.3 km/h 39 % 0.0 mm
16:52 24.6 °C 9.7 °C 1027.3 hPa SSW 8.0 km/h 12.9 km/h 39 % 0.0 mm
16:57 24.6 °C 9.7 °C 1027.3 hPa West 8.0 km/h 17.7 km/h 39 % 0.0 mm
17:07 24.7 °C 10.2 °C 1027.3 hPa WSW 1.6 km/h 17.7 km/h 40 % 0.0 mm
17:12 25.0 °C 10.1 °C 1027.3 hPa SSW 4.8 km/h 17.7 km/h 39 % 0.0 mm
17:17 25.1 °C 10.6 °C 1027.3 hPa SW 4.8 km/h 12.9 km/h 40 % 0.0 mm
17:22 25.2 °C 10.3 °C 1027.3 hPa WSW 1.6 km/h 11.3 km/h 39 % 0.0 mm
17:32 24.9 °C 10.4 °C 1027.3 hPa SW 9.7 km/h 9.7 km/h 40 % 0.0 mm
17:42 24.8 °C 10.7 °C 1027.3 hPa West 4.8 km/h 12.9 km/h 41 % 0.0 mm
17:47 24.8 °C 11.0 °C 1027.7 hPa WSW 6.4 km/h 12.9 km/h 42 % 0.0 mm
17:57 24.7 °C 10.9 °C 1027.3 hPa WNW 3.2 km/h 12.9 km/h 42 % 0.0 mm
18:02 24.8 °C 11.0 °C 1027.3 hPa SW 1.6 km/h 12.9 km/h 42 % 0.0 mm
18:12 24.9 °C 11.1 °C 1027.3 hPa SW 1.6 km/h 12.9 km/h 42 % 0.0 mm
18:17 24.7 °C 10.9 °C 1027.3 hPa WSW 3.2 km/h 8.0 km/h 42 % 0.0 mm
18:22 24.7 °C 11.3 °C 1027.3 hPa West 1.6 km/h 9.7 km/h 43 % 0.0 mm
18:27 24.8 °C 11.0 °C 1027.3 hPa SW 3.2 km/h 9.7 km/h 42 % 0.0 mm
18:37 24.6 °C 11.2 °C 1027.3 hPa WSW 3.2 km/h 9.7 km/h 43 % 0.0 mm
18:42 24.6 °C 11.2 °C 1027.3 hPa SW 3.2 km/h 9.7 km/h 43 % 0.0 mm
18:47 24.6 °C 11.2 °C 1027.3 hPa SW 1.6 km/h 9.7 km/h 43 % 0.0 mm
18:52 24.5 °C 11.1 °C 1027.3 hPa SW 3.2 km/h 6.4 km/h 43 % 0.0 mm
19:02 24.2 °C 11.2 °C 1027.3 hPa West 1.6 km/h 4.8 km/h 44 % 0.0 mm
19:12 23.9 °C 11.2 °C 1027.3 hPa Calm   4.8 km/h 45 % 0.0 mm
19:22 23.4 °C 11.4 °C 1027.3 hPa Calm   3.2 km/h 47 % 0.0 mm
19:32 22.5 °C 11.6 °C 1027.3 hPa Calm     50 % 0.0 mm
19:37 22.1 °C 11.5 °C 1027.3 hPa Calm     51 % 0.0 mm
19:42 21.6 °C 11.9 °C 1027.3 hPa Calm     54 % 0.0 mm
19:47 21.2 °C 11.8 °C 1027.3 hPa Calm     55 % 0.0 mm
19:52 20.9 °C 11.8 °C 1027.3 hPa Calm     56 % 0.0 mm
19:57 20.5 °C 11.4 °C 1027.3 hPa Calm     56 % 0.0 mm
20:02 20.1 °C 11.6 °C 1027.3 hPa Calm     58 % 0.0 mm
20:12 19.4 °C 11.7 °C 1027.3 hPa Calm     61 % 0.0 mm
20:17 19.2 °C 11.7 °C 1027.3 hPa Calm     62 % 0.0 mm
20:22 18.9 °C 11.7 °C 1027.3 hPa Calm     63 % 0.0 mm
20:27 18.9 °C 11.9 °C 1027.3 hPa Calm     64 % 0.0 mm
20:37 18.9 °C 12.4 °C 1027.3 hPa Calm     66 % 0.0 mm
20:47 18.7 °C 12.2 °C 1027.3 hPa Calm     66 % 0.0 mm
20:52 18.5 °C 12.3 °C 1027.3 hPa Calm     67 % 0.0 mm
20:57 18.5 °C 12.5 °C 1027.3 hPa Calm     68 % 0.0 mm
21:02 18.6 °C 12.6 °C 1027.3 hPa Calm     68 % 0.0 mm
21:12 18.6 °C 12.4 °C 1027.3 hPa Calm     67 % 0.0 mm
21:17 18.2 °C 12.2 °C 1027.3 hPa Calm     68 % 0.0 mm
21:22 17.9 °C 12.1 °C 1027.3 hPa Calm     69 % 0.0 mm
21:27 17.7 °C 12.2 °C 1027.3 hPa Calm     70 % 0.0 mm
21:32 17.5 °C 12.2 °C 1027.3 hPa Calm     71 % 0.0 mm
21:47 17.1 °C 12.2 °C 1027.3 hPa Calm     73 % 0.0 mm
21:57 16.7 °C 11.8 °C 1027.3 hPa Calm     73 % 0.0 mm
22:02 16.6 °C 12.1 °C 1027.3 hPa Calm     75 % 0.0 mm
22:12 16.3 °C 11.5 °C 1027.3 hPa Calm     73 % 0.0 mm
22:17 16.1 °C 11.7 °C 1027.3 hPa Calm     75 % 0.0 mm
22:22 16.0 °C 11.2 °C 1027.3 hPa Calm     73 % 0.0 mm
22:32 15.7 °C 11.1 °C 1027.3 hPa Calm     74 % 0.0 mm
22:42 15.5 °C 11.1 °C 1027.3 hPa Calm     75 % 0.0 mm
22:52 15.3 °C 11.3 °C 1027.3 hPa Calm     77 % 0.0 mm
22:57 15.2 °C 11.2 °C 1027.0 hPa Calm     77 % 0.0 mm
23:02 15.3 °C 11.5 °C 1027.0 hPa Calm     78 % 0.0 mm
23:12 15.2 °C 11.6 °C 1027.0 hPa Calm     79 % 0.0 mm
23:17 15.1 °C 11.9 °C 1027.0 hPa Calm     81 % 0.0 mm
23:22 15.1 °C 11.9 °C 1027.0 hPa Calm     81 % 0.0 mm
23:27 14.9 °C 11.7 °C 1027.0 hPa Calm     81 % 0.0 mm
23:32 14.9 °C 11.7 °C 1027.0 hPa Calm     81 % 0.0 mm
23:37 15.0 °C 11.6 °C 1027.0 hPa Calm     80 % 0.0 mm
23:42 14.9 °C 11.9 °C 1026.6 hPa Calm     82 % 0.0 mm
23:47 14.9 °C 11.9 °C 1026.6 hPa Calm     82 % 0.0 mm
23:52 14.8 °C 11.6 °C 1026.6 hPa Calm     81 % 0.0 mm
23:57 14.7 °C 11.7 °C 1026.6 hPa Calm     82 % 0.0 mm
Meteo18
Compliments of Weather Underground - 4 mb

Script developed by  Jim McMurry - jmcmurry@mwt.net Adapted for the template by  Wim van der Kuil - Leuven-Template.eu

You find our weather info also at:

European Weather Network

Weather Underground

Equipment we use:

Weather-station
Davis Vue

Weather-program
Meteohub

Weather-server
Raspberry PI 2 B+

Provider
1 and 1

Davis Vue

Meteohub

Raspberry PI 2 B+

1 and 1